sensor_id;sensor_type;location;lat;lon;timestamp;temperature;humidity
12959;DHT22;6544;51.666;6.634;2023-04-29T00:01:06;10.90;99.90
12959;DHT22;6544;51.666;6.634;2023-04-29T00:03:33;10.90;99.90
12959;DHT22;6544;51.666;6.634;2023-04-29T00:06:00;10.90;99.90
12959;DHT22;6544;51.666;6.634;2023-04-29T00:08:28;10.90;99.90
12959;DHT22;6544;51.666;6.634;2023-04-29T00:10:55;10.90;99.90
12959;DHT22;6544;51.666;6.634;2023-04-29T00:13:22;11.00;99.90
12959;DHT22;6544;51.666;6.634;2023-04-29T00:15:49;10.90;99.90
12959;DHT22;6544;51.666;6.634;2023-04-29T00:18:16;10.80;99.90
12959;DHT22;6544;51.666;6.634;2023-04-29T00:20:43;10.60;99.90
12959;DHT22;6544;51.666;6.634;2023-04-29T00:23:10;10.50;99.90
12959;DHT22;6544;51.666;6.634;2023-04-29T00:25:38;10.50;99.90
12959;DHT22;6544;51.666;6.634;2023-04-29T00:28:05;10.60;99.90
12959;DHT22;6544;51.666;6.634;2023-04-29T00:30:32;10.50;99.90
12959;DHT22;6544;51.666;6.634;2023-04-29T00:33:00;10.40;99.90
12959;DHT22;6544;51.666;6.634;2023-04-29T00:35:27;10.40;99.90
12959;DHT22;6544;51.666;6.634;2023-04-29T00:37:54;10.30;99.90
12959;DHT22;6544;51.666;6.634;2023-04-29T00:40:21;10.30;99.90
12959;DHT22;6544;51.666;6.634;2023-04-29T00:42:49;10.20;99.90
12959;DHT22;6544;51.666;6.634;2023-04-29T00:45:16;10.10;99.90
12959;DHT22;6544;51.666;6.634;2023-04-29T00:47:43;10.10;99.90
12959;DHT22;6544;51.666;6.634;2023-04-29T00:50:10;10.10;99.90
12959;DHT22;6544;51.666;6.634;2023-04-29T00:52:37;10.20;99.90
12959;DHT22;6544;51.666;6.634;2023-04-29T00:55:05;10.20;99.90
12959;DHT22;6544;51.666;6.634;2023-04-29T00:57:33;10.20;99.90
12959;DHT22;6544;51.666;6.634;2023-04-29T01:00:02;10.10;99.90
12959;DHT22;6544;51.666;6.634;2023-04-29T01:02:30;10.10;99.90
12959;DHT22;6544;51.666;6.634;2023-04-29T01:04:57;10.10;99.90
12959;DHT22;6544;51.666;6.634;2023-04-29T01:07:30;10.10;99.90
12959;DHT22;6544;51.666;6.634;2023-04-29T01:10:03;10.10;99.90
12959;DHT22;6544;51.666;6.634;2023-04-29T01:12:39;10.10;99.90
12959;DHT22;6544;51.666;6.634;2023-04-29T01:15:14;10.10;99.90
12959;DHT22;6544;51.666;6.634;2023-04-29T01:17:47;10.00;99.90
12959;DHT22;6544;51.666;6.634;2023-04-29T01:20:16;10.10;99.90
12959;DHT22;6544;51.666;6.634;2023-04-29T01:22:44;10.10;99.90
12959;DHT22;6544;51.666;6.634;2023-04-29T01:25:13;10.00;99.90
12959;DHT22;6544;51.666;6.634;2023-04-29T01:27:47;10.00;99.90
12959;DHT22;6544;51.666;6.634;2023-04-29T01:30:25;10.00;99.90
12959;DHT22;6544;51.666;6.634;2023-04-29T01:32:59;10.00;99.90
12959;DHT22;6544;51.666;6.634;2023-04-29T01:35:49;9.90;99.90
12959;DHT22;6544;51.666;6.634;2023-04-29T01:38:24;9.90;99.90
12959;DHT22;6544;51.666;6.634;2023-04-29T01:41:00;9.90;99.90
12959;DHT22;6544;51.666;6.634;2023-04-29T01:43:32;9.90;99.90
12959;DHT22;6544;51.666;6.634;2023-04-29T01:46:01;9.90;99.90
12959;DHT22;6544;51.666;6.634;2023-04-29T01:48:29;9.90;99.90
12959;DHT22;6544;51.666;6.634;2023-04-29T01:50:56;9.80;99.90
12959;DHT22;6544;51.666;6.634;2023-04-29T01:53:23;9.80;99.90
12959;DHT22;6544;51.666;6.634;2023-04-29T01:55:49;9.80;99.90
12959;DHT22;6544;51.666;6.634;2023-04-29T01:58:18;9.80;99.90
12959;DHT22;6544;51.666;6.634;2023-04-29T02:00:45;9.80;99.90
12959;DHT22;6544;51.666;6.634;2023-04-29T02:03:11;9.80;99.90
12959;DHT22;6544;51.666;6.634;2023-04-29T02:05:38;9.80;99.90
12959;DHT22;6544;51.666;6.634;2023-04-29T02:08:05;9.80;99.90
12959;DHT22;6544;51.666;6.634;2023-04-29T02:10:33;9.80;99.90
12959;DHT22;6544;51.666;6.634;2023-04-29T02:13:00;9.80;99.90
12959;DHT22;6544;51.666;6.634;2023-04-29T02:15:28;9.70;99.90
12959;DHT22;6544;51.666;6.634;2023-04-29T02:17:55;9.70;99.90
12959;DHT22;6544;51.666;6.634;2023-04-29T02:20:22;9.70;99.90
12959;DHT22;6544;51.666;6.634;2023-04-29T02:22:49;9.70;99.90
12959;DHT22;6544;51.666;6.634;2023-04-29T02:25:16;9.70;99.90
12959;DHT22;6544;51.666;6.634;2023-04-29T02:27:43;9.60;99.90
12959;DHT22;6544;51.666;6.634;2023-04-29T02:30:10;9.60;99.90
12959;DHT22;6544;51.666;6.634;2023-04-29T02:32:38;9.60;99.90
12959;DHT22;6544;51.666;6.634;2023-04-29T02:35:06;9.60;99.90
12959;DHT22;6544;51.666;6.634;2023-04-29T02:37:33;9.60;99.90
12959;DHT22;6544;51.666;6.634;2023-04-29T02:40:00;9.60;99.90
12959;DHT22;6544;51.666;6.634;2023-04-29T02:42:28;9.60;99.90
12959;DHT22;6544;51.666;6.634;2023-04-29T02:44:55;9.60;99.90
12959;DHT22;6544;51.666;6.634;2023-04-29T02:47:22;9.60;99.90
12959;DHT22;6544;51.666;6.634;2023-04-29T02:49:50;9.60;99.90
12959;DHT22;6544;51.666;6.634;2023-04-29T02:52:17;9.50;99.90
12959;DHT22;6544;51.666;6.634;2023-04-29T02:54:44;9.50;99.90
12959;DHT22;6544;51.666;6.634;2023-04-29T02:57:11;9.50;99.90
12959;DHT22;6544;51.666;6.634;2023-04-29T02:59:38;9.50;99.90
12959;DHT22;6544;51.666;6.634;2023-04-29T03:02:05;9.50;99.90
12959;DHT22;6544;51.666;6.634;2023-04-29T03:04:32;9.50;99.90
12959;DHT22;6544;51.666;6.634;2023-04-29T03:07:00;9.50;99.90
12959;DHT22;6544;51.666;6.634;2023-04-29T03:09:27;9.50;99.90
12959;DHT22;6544;51.666;6.634;2023-04-29T03:11:54;9.50;99.90
12959;DHT22;6544;51.666;6.634;2023-04-29T03:14:21;9.50;99.90
12959;DHT22;6544;51.666;6.634;2023-04-29T03:16:47;9.50;99.90
12959;DHT22;6544;51.666;6.634;2023-04-29T03:19:14;9.50;99.90
12959;DHT22;6544;51.666;6.634;2023-04-29T03:21:42;9.40;99.90
12959;DHT22;6544;51.666;6.634;2023-04-29T03:24:10;9.50;99.90
12959;DHT22;6544;51.666;6.634;2023-04-29T03:26:37;9.60;99.90
12959;DHT22;6544;51.666;6.634;2023-04-29T03:29:04;9.50;99.90
12959;DHT22;6544;51.666;6.634;2023-04-29T03:31:30;9.50;99.90
12959;DHT22;6544;51.666;6.634;2023-04-29T03:33:58;9.50;99.90
12959;DHT22;6544;51.666;6.634;2023-04-29T03:36:25;9.50;99.90
12959;DHT22;6544;51.666;6.634;2023-04-29T03:38:52;9.50;99.90
12959;DHT22;6544;51.666;6.634;2023-04-29T03:41:21;9.50;99.90
12959;DHT22;6544;51.666;6.634;2023-04-29T03:43:48;9.50;99.90
12959;DHT22;6544;51.666;6.634;2023-04-29T03:46:15;9.50;99.90
12959;DHT22;6544;51.666;6.634;2023-04-29T03:48:42;9.50;99.90
12959;DHT22;6544;51.666;6.634;2023-04-29T03:51:09;9.50;99.90
12959;DHT22;6544;51.666;6.634;2023-04-29T03:53:37;9.60;99.90
12959;DHT22;6544;51.666;6.634;2023-04-29T03:56:05;9.50;99.90
12959;DHT22;6544;51.666;6.634;2023-04-29T03:58:33;9.50;99.90
12959;DHT22;6544;51.666;6.634;2023-04-29T04:01:00;9.50;99.90
12959;DHT22;6544;51.666;6.634;2023-04-29T04:03:27;9.50;99.90
12959;DHT22;6544;51.666;6.634;2023-04-29T04:05:55;9.50;99.90
12959;DHT22;6544;51.666;6.634;2023-04-29T04:08:22;9.50;99.90
12959;DHT22;6544;51.666;6.634;2023-04-29T04:10:49;9.50;99.90
12959;DHT22;6544;51.666;6.634;2023-04-29T04:13:16;9.50;99.90
12959;DHT22;6544;51.666;6.634;2023-04-29T04:15:49;9.50;99.90
12959;DHT22;6544;51.666;6.634;2023-04-29T04:18:16;9.50;99.90
12959;DHT22;6544;51.666;6.634;2023-04-29T04:20:43;9.60;99.90
12959;DHT22;6544;51.666;6.634;2023-04-29T04:23:10;9.50;99.90
12959;DHT22;6544;51.666;6.634;2023-04-29T04:25:37;9.50;99.90
12959;DHT22;6544;51.666;6.634;2023-04-29T04:28:04;9.50;99.90
12959;DHT22;6544;51.666;6.634;2023-04-29T04:30:32;9.50;99.90
12959;DHT22;6544;51.666;6.634;2023-04-29T04:33:02;9.50;99.90
12959;DHT22;6544;51.666;6.634;2023-04-29T04:35:29;9.60;99.90
12959;DHT22;6544;51.666;6.634;2023-04-29T04:37:56;9.60;99.90
12959;DHT22;6544;51.666;6.634;2023-04-29T04:40:23;9.50;99.90
12959;DHT22;6544;51.666;6.634;2023-04-29T04:42:50;9.50;99.90
12959;DHT22;6544;51.666;6.634;2023-04-29T04:45:17;9.50;99.90
12959;DHT22;6544;51.666;6.634;2023-04-29T04:47:44;9.50;99.90
12959;DHT22;6544;51.666;6.634;2023-04-29T04:50:12;9.50;99.90
12959;DHT22;6544;51.666;6.634;2023-04-29T04:52:39;9.50;99.90
12959;DHT22;6544;51.666;6.634;2023-04-29T04:55:06;9.50;99.90
12959;DHT22;6544;51.666;6.634;2023-04-29T04:57:33;9.50;99.90
12959;DHT22;6544;51.666;6.634;2023-04-29T05:00:00;9.50;99.90
12959;DHT22;6544;51.666;6.634;2023-04-29T05:02:29;9.50;99.90
12959;DHT22;6544;51.666;6.634;2023-04-29T05:04:56;9.50;99.90
12959;DHT22;6544;51.666;6.634;2023-04-29T05:07:24;9.50;99.90
12959;DHT22;6544;51.666;6.634;2023-04-29T05:09:51;9.50;99.90
12959;DHT22;6544;51.666;6.634;2023-04-29T05:12:18;9.50;99.90
12959;DHT22;6544;51.666;6.634;2023-04-29T05:14:45;9.50;99.90
12959;DHT22;6544;51.666;6.634;2023-04-29T05:17:12;9.50;99.90
12959;DHT22;6544;51.666;6.634;2023-04-29T05:19:39;9.50;99.90
12959;DHT22;6544;51.666;6.634;2023-04-29T05:22:07;9.50;99.90
12959;DHT22;6544;51.666;6.634;2023-04-29T05:24:36;9.50;99.90
12959;DHT22;6544;51.666;6.634;2023-04-29T05:27:03;9.50;99.90
12959;DHT22;6544;51.666;6.634;2023-04-29T05:29:30;9.50;99.90
12959;DHT22;6544;51.666;6.634;2023-04-29T05:31:57;9.50;99.90
12959;DHT22;6544;51.666;6.634;2023-04-29T05:34:24;9.50;99.90
12959;DHT22;6544;51.666;6.634;2023-04-29T05:36:51;9.50;99.90
12959;DHT22;6544;51.666;6.634;2023-04-29T05:39:18;9.60;99.90
12959;DHT22;6544;51.666;6.634;2023-04-29T05:41:46;9.50;99.90
12959;DHT22;6544;51.666;6.634;2023-04-29T05:44:13;9.50;99.90
12959;DHT22;6544;51.666;6.634;2023-04-29T05:46:40;9.60;99.90
12959;DHT22;6544;51.666;6.634;2023-04-29T05:49:07;9.50;99.90
12959;DHT22;6544;51.666;6.634;2023-04-29T05:51:34;9.50;99.90
12959;DHT22;6544;51.666;6.634;2023-04-29T05:54:01;9.50;99.90
12959;DHT22;6544;51.666;6.634;2023-04-29T05:56:28;9.50;99.90
12959;DHT22;6544;51.666;6.634;2023-04-29T05:58:56;9.50;99.90
12959;DHT22;6544;51.666;6.634;2023-04-29T06:01:23;9.60;99.90
12959;DHT22;6544;51.666;6.634;2023-04-29T06:03:50;9.60;99.90
12959;DHT22;6544;51.666;6.634;2023-04-29T06:06:17;9.50;99.90
12959;DHT22;6544;51.666;6.634;2023-04-29T06:08:44;9.50;99.90
12959;DHT22;6544;51.666;6.634;2023-04-29T06:11:11;9.60;99.90
12959;DHT22;6544;51.666;6.634;2023-04-29T06:13:39;9.60;99.90
12959;DHT22;6544;51.666;6.634;2023-04-29T06:16:07;9.60;99.90
12959;DHT22;6544;51.666;6.634;2023-04-29T06:18:34;9.60;99.90
12959;DHT22;6544;51.666;6.634;2023-04-29T06:21:02;9.70;99.90
12959;DHT22;6544;51.666;6.634;2023-04-29T06:23:29;9.70;99.90
12959;DHT22;6544;51.666;6.634;2023-04-29T06:25:57;9.70;99.90
12959;DHT22;6544;51.666;6.634;2023-04-29T06:28:27;9.70;99.90
12959;DHT22;6544;51.666;6.634;2023-04-29T06:30:54;9.70;99.90
12959;DHT22;6544;51.666;6.634;2023-04-29T06:33:22;9.60;99.90
12959;DHT22;6544;51.666;6.634;2023-04-29T06:35:49;9.70;99.90
12959;DHT22;6544;51.666;6.634;2023-04-29T06:38:16;9.60;99.90
12959;DHT22;6544;51.666;6.634;2023-04-29T06:40:43;9.70;99.90
12959;DHT22;6544;51.666;6.634;2023-04-29T06:43:10;9.70;99.90
12959;DHT22;6544;51.666;6.634;2023-04-29T06:45:37;9.70;99.90
12959;DHT22;6544;51.666;6.634;2023-04-29T06:48:04;9.70;99.90
12959;DHT22;6544;51.666;6.634;2023-04-29T06:50:33;9.70;99.90
12959;DHT22;6544;51.666;6.634;2023-04-29T06:53:03;9.80;99.90
12959;DHT22;6544;51.666;6.634;2023-04-29T06:55:30;9.70;99.90
12959;DHT22;6544;51.666;6.634;2023-04-29T06:57:57;9.80;99.90
12959;DHT22;6544;51.666;6.634;2023-04-29T07:00:24;9.70;99.90
12959;DHT22;6544;51.666;6.634;2023-04-29T07:02:51;9.70;99.90
12959;DHT22;6544;51.666;6.634;2023-04-29T07:05:18;9.80;99.90
12959;DHT22;6544;51.666;6.634;2023-04-29T07:07:46;9.80;99.90
12959;DHT22;6544;51.666;6.634;2023-04-29T07:10:13;9.80;99.90
12959;DHT22;6544;51.666;6.634;2023-04-29T07:12:40;9.80;99.90
12959;DHT22;6544;51.666;6.634;2023-04-29T07:15:07;9.80;99.90
12959;DHT22;6544;51.666;6.634;2023-04-29T07:17:34;9.80;99.90
12959;DHT22;6544;51.666;6.634;2023-04-29T07:20:01;9.80;99.90
12959;DHT22;6544;51.666;6.634;2023-04-29T07:22:28;9.80;99.90
12959;DHT22;6544;51.666;6.634;2023-04-29T07:24:57;9.90;99.90
12959;DHT22;6544;51.666;6.634;2023-04-29T07:27:24;9.80;99.90
12959;DHT22;6544;51.666;6.634;2023-04-29T07:29:51;9.90;99.90
12959;DHT22;6544;51.666;6.634;2023-04-29T07:32:17;9.80;99.90
12959;DHT22;6544;51.666;6.634;2023-04-29T07:34:44;9.90;99.90
12959;DHT22;6544;51.666;6.634;2023-04-29T07:37:12;9.90;99.90
12959;DHT22;6544;51.666;6.634;2023-04-29T07:39:39;10.00;99.90
12959;DHT22;6544;51.666;6.634;2023-04-29T07:42:08;10.00;99.90
12959;DHT22;6544;51.666;6.634;2023-04-29T07:44:35;10.00;99.90
12959;DHT22;6544;51.666;6.634;2023-04-29T07:47:03;9.90;99.90
12959;DHT22;6544;51.666;6.634;2023-04-29T07:49:30;9.90;99.90
12959;DHT22;6544;51.666;6.634;2023-04-29T07:51:57;9.90;99.90
12959;DHT22;6544;51.666;6.634;2023-04-29T07:54:24;9.90;99.90
12959;DHT22;6544;51.666;6.634;2023-04-29T07:56:52;9.90;99.90
12959;DHT22;6544;51.666;6.634;2023-04-29T07:59:20;10.00;99.90
12959;DHT22;6544;51.666;6.634;2023-04-29T08:01:47;10.00;99.90
12959;DHT22;6544;51.666;6.634;2023-04-29T08:04:14;10.00;99.90
12959;DHT22;6544;51.666;6.634;2023-04-29T08:06:41;10.00;99.90
12959;DHT22;6544;51.666;6.634;2023-04-29T08:09:07;10.00;99.90
12959;DHT22;6544;51.666;6.634;2023-04-29T08:11:35;10.00;99.90
12959;DHT22;6544;51.666;6.634;2023-04-29T08:14:02;10.10;99.90
12959;DHT22;6544;51.666;6.634;2023-04-29T08:16:30;10.10;99.90
12959;DHT22;6544;51.666;6.634;2023-04-29T08:18:57;10.10;99.90
12959;DHT22;6544;51.666;6.634;2023-04-29T08:21:24;10.10;99.90
12959;DHT22;6544;51.666;6.634;2023-04-29T08:23:52;10.20;99.90
12959;DHT22;6544;51.666;6.634;2023-04-29T08:26:20;10.20;99.90
12959;DHT22;6544;51.666;6.634;2023-04-29T08:28:47;10.10;99.90
12959;DHT22;6544;51.666;6.634;2023-04-29T08:31:17;10.10;99.90
12959;DHT22;6544;51.666;6.634;2023-04-29T08:33:46;10.10;99.90
12959;DHT22;6544;51.666;6.634;2023-04-29T08:36:13;10.20;99.90
12959;DHT22;6544;51.666;6.634;2023-04-29T08:38:40;10.20;99.90
12959;DHT22;6544;51.666;6.634;2023-04-29T08:41:08;10.40;99.90
12959;DHT22;6544;51.666;6.634;2023-04-29T08:43:36;10.30;99.90
12959;DHT22;6544;51.666;6.634;2023-04-29T08:46:05;10.30;99.90
12959;DHT22;6544;51.666;6.634;2023-04-29T08:48:33;10.30;99.90
12959;DHT22;6544;51.666;6.634;2023-04-29T08:51:02;10.30;99.90
12959;DHT22;6544;51.666;6.634;2023-04-29T08:53:29;10.30;99.90
12959;DHT22;6544;51.666;6.634;2023-04-29T08:55:58;10.40;99.90
12959;DHT22;6544;51.666;6.634;2023-04-29T08:58:27;10.30;99.90
12959;DHT22;6544;51.666;6.634;2023-04-29T09:00:55;10.40;99.90
12959;DHT22;6544;51.666;6.634;2023-04-29T09:03:26;10.50;99.90
12959;DHT22;6544;51.666;6.634;2023-04-29T09:05:59;10.50;99.90
12959;DHT22;6544;51.666;6.634;2023-04-29T09:08:27;10.60;99.90
12959;DHT22;6544;51.666;6.634;2023-04-29T09:10:55;10.70;99.90
12959;DHT22;6544;51.666;6.634;2023-04-29T09:13:24;10.70;99.90
12959;DHT22;6544;51.666;6.634;2023-04-29T09:15:51;10.70;99.90
12959;DHT22;6544;51.666;6.634;2023-04-29T09:18:46;10.70;99.90
12959;DHT22;6544;51.666;6.634;2023-04-29T09:21:15;10.70;99.90
12959;DHT22;6544;51.666;6.634;2023-04-29T09:23:48;10.80;99.90
12959;DHT22;6544;51.666;6.634;2023-04-29T09:26:16;10.90;99.90
12959;DHT22;6544;51.666;6.634;2023-04-29T09:28:43;11.00;99.90
12959;DHT22;6544;51.666;6.634;2023-04-29T09:31:12;11.00;99.90
12959;DHT22;6544;51.666;6.634;2023-04-29T09:33:49;11.00;99.90
12959;DHT22;6544;51.666;6.634;2023-04-29T09:36:38;11.10;99.90
12959;DHT22;6544;51.666;6.634;2023-04-29T09:39:08;11.00;99.90
12959;DHT22;6544;51.666;6.634;2023-04-29T09:41:41;11.10;1.00
12959;DHT22;6544;51.666;6.634;2023-04-29T09:44:09;11.20;8.90
12959;DHT22;6544;51.666;6.634;2023-04-29T09:46:37;11.20;1.00
12959;DHT22;6544;51.666;6.634;2023-04-29T09:49:04;11.10;1.00
12959;DHT22;6544;51.666;6.634;2023-04-29T09:51:52;11.20;1.00
12959;DHT22;6544;51.666;6.634;2023-04-29T09:54:21;11.30;1.00
12959;DHT22;6544;51.666;6.634;2023-04-29T09:56:52;11.40;1.00
12959;DHT22;6544;51.666;6.634;2023-04-29T09:59:19;11.50;1.00
12959;DHT22;6544;51.666;6.634;2023-04-29T10:01:48;11.50;1.00
12959;DHT22;6544;51.666;6.634;2023-04-29T10:04:17;11.60;1.00
12959;DHT22;6544;51.666;6.634;2023-04-29T10:06:45;11.60;1.00
12959;DHT22;6544;51.666;6.634;2023-04-29T10:09:14;11.70;1.00
12959;DHT22;6544;51.666;6.634;2023-04-29T10:11:43;11.70;1.00
12959;DHT22;6544;51.666;6.634;2023-04-29T10:14:12;11.80;1.00
12959;DHT22;6544;51.666;6.634;2023-04-29T10:16:45;11.80;1.00
12959;DHT22;6544;51.666;6.634;2023-04-29T10:19:18;11.70;1.00
12959;DHT22;6544;51.666;6.634;2023-04-29T10:21:47;11.70;1.00
12959;DHT22;6544;51.666;6.634;2023-04-29T10:24:16;11.90;1.00
12959;DHT22;6544;51.666;6.634;2023-04-29T10:26:46;11.90;1.00
12959;DHT22;6544;51.666;6.634;2023-04-29T10:29:14;11.90;1.00
12959;DHT22;6544;51.666;6.634;2023-04-29T10:31:43;11.90;1.00
12959;DHT22;6544;51.666;6.634;2023-04-29T10:34:11;12.00;1.00
12959;DHT22;6544;51.666;6.634;2023-04-29T10:36:39;12.20;1.00
12959;DHT22;6544;51.666;6.634;2023-04-29T10:39:09;12.30;1.00
12959;DHT22;6544;51.666;6.634;2023-04-29T10:41:46;12.30;1.00
12959;DHT22;6544;51.666;6.634;2023-04-29T10:44:13;12.40;99.90
12959;DHT22;6544;51.666;6.634;2023-04-29T10:46:40;12.40;1.00
12959;DHT22;6544;51.666;6.634;2023-04-29T10:49:09;12.60;1.00
12959;DHT22;6544;51.666;6.634;2023-04-29T10:51:40;12.90;99.90
12959;DHT22;6544;51.666;6.634;2023-04-29T10:54:08;12.90;99.90
12959;DHT22;6544;51.666;6.634;2023-04-29T10:56:37;13.00;99.90
12959;DHT22;6544;51.666;6.634;2023-04-29T10:59:09;12.90;99.90
12959;DHT22;6544;51.666;6.634;2023-04-29T11:01:41;13.20;99.90
12959;DHT22;6544;51.666;6.634;2023-04-29T11:04:09;13.20;99.90
12959;DHT22;6544;51.666;6.634;2023-04-29T11:06:41;13.30;57.80
12959;DHT22;6544;51.666;6.634;2023-04-29T11:09:13;13.40;26.00
12959;DHT22;6544;51.666;6.634;2023-04-29T11:14:34;13.70;1.00
12959;DHT22;6544;51.666;6.634;2023-04-29T11:17:07;13.70;45.30
12959;DHT22;6544;51.666;6.634;2023-04-29T11:19:36;13.80;1.00
12959;DHT22;6544;51.666;6.634;2023-04-29T11:22:12;13.90;12.20
12959;DHT22;6544;51.666;6.634;2023-04-29T11:24:50;13.80;1.00
12959;DHT22;6544;51.666;6.634;2023-04-29T11:27:17;14.10;1.00
12959;DHT22;6544;51.666;6.634;2023-04-29T11:29:46;14.40;1.00
12959;DHT22;6544;51.666;6.634;2023-04-29T11:32:13;14.50;1.00
12959;DHT22;6544;51.666;6.634;2023-04-29T11:34:40;14.40;1.00
12959;DHT22;6544;51.666;6.634;2023-04-29T11:37:08;14.10;1.00
12959;DHT22;6544;51.666;6.634;2023-04-29T11:39:35;14.20;1.00
12959;DHT22;6544;51.666;6.634;2023-04-29T11:42:03;14.40;1.00
12959;DHT22;6544;51.666;6.634;2023-04-29T11:44:30;14.50;1.00
12959;DHT22;6544;51.666;6.634;2023-04-29T11:47:02;14.40;1.00
12959;DHT22;6544;51.666;6.634;2023-04-29T11:49:29;14.70;1.00
12959;DHT22;6544;51.666;6.634;2023-04-29T11:51:57;14.70;1.00
12959;DHT22;6544;51.666;6.634;2023-04-29T11:54:25;14.80;1.00
12959;DHT22;6544;51.666;6.634;2023-04-29T11:56:52;14.80;1.00
12959;DHT22;6544;51.666;6.634;2023-04-29T11:59:20;14.80;1.00
12959;DHT22;6544;51.666;6.634;2023-04-29T12:01:47;14.60;1.00
12959;DHT22;6544;51.666;6.634;2023-04-29T12:04:15;14.50;1.00
12959;DHT22;6544;51.666;6.634;2023-04-29T12:06:42;14.60;1.00
12959;DHT22;6544;51.666;6.634;2023-04-29T12:09:09;14.50;1.00
12959;DHT22;6544;51.666;6.634;2023-04-29T12:11:37;14.50;1.00
12959;DHT22;6544;51.666;6.634;2023-04-29T12:14:04;14.60;1.00
12959;DHT22;6544;51.666;6.634;2023-04-29T12:16:32;14.60;1.00
12959;DHT22;6544;51.666;6.634;2023-04-29T12:19:00;14.40;1.00
12959;DHT22;6544;51.666;6.634;2023-04-29T12:21:32;14.30;1.00
12959;DHT22;6544;51.666;6.634;2023-04-29T12:24:02;14.50;1.00
12959;DHT22;6544;51.666;6.634;2023-04-29T12:26:29;14.70;1.00
12959;DHT22;6544;51.666;6.634;2023-04-29T12:28:58;14.60;1.00
12959;DHT22;6544;51.666;6.634;2023-04-29T12:31:32;14.80;1.00
12959;DHT22;6544;51.666;6.634;2023-04-29T12:33:59;14.60;1.00
12959;DHT22;6544;51.666;6.634;2023-04-29T12:36:27;14.60;1.00
12959;DHT22;6544;51.666;6.634;2023-04-29T12:38:55;14.50;1.00
12959;DHT22;6544;51.666;6.634;2023-04-29T12:41:37;14.70;1.00
12959;DHT22;6544;51.666;6.634;2023-04-29T12:44:05;14.80;1.00
12959;DHT22;6544;51.666;6.634;2023-04-29T12:46:36;14.60;1.00
12959;DHT22;6544;51.666;6.634;2023-04-29T12:49:03;14.60;1.00
12959;DHT22;6544;51.666;6.634;2023-04-29T12:51:31;14.50;1.00
12959;DHT22;6544;51.666;6.634;2023-04-29T12:54:00;14.50;1.00
12959;DHT22;6544;51.666;6.634;2023-04-29T12:56:28;14.50;1.00
12959;DHT22;6544;51.666;6.634;2023-04-29T12:58:55;14.40;1.00
12959;DHT22;6544;51.666;6.634;2023-04-29T13:01:22;14.50;1.00
12959;DHT22;6544;51.666;6.634;2023-04-29T13:03:50;14.70;1.00
12959;DHT22;6544;51.666;6.634;2023-04-29T13:06:17;14.90;1.00
12959;DHT22;6544;51.666;6.634;2023-04-29T13:08:44;15.00;1.00
12959;DHT22;6544;51.666;6.634;2023-04-29T13:11:13;14.90;1.00
12959;DHT22;6544;51.666;6.634;2023-04-29T13:13:40;14.90;1.00
12959;DHT22;6544;51.666;6.634;2023-04-29T13:16:07;14.90;1.00
12959;DHT22;6544;51.666;6.634;2023-04-29T13:18:34;15.00;1.00
12959;DHT22;6544;51.666;6.634;2023-04-29T13:21:01;15.10;1.00
12959;DHT22;6544;51.666;6.634;2023-04-29T13:23:31;15.00;1.00
12959;DHT22;6544;51.666;6.634;2023-04-29T13:25:58;15.00;1.00
12959;DHT22;6544;51.666;6.634;2023-04-29T13:28:27;15.00;1.00
12959;DHT22;6544;51.666;6.634;2023-04-29T13:30:54;15.10;1.00
12959;DHT22;6544;51.666;6.634;2023-04-29T13:33:21;15.20;1.00
12959;DHT22;6544;51.666;6.634;2023-04-29T13:35:48;15.30;1.00
12959;DHT22;6544;51.666;6.634;2023-04-29T13:38:15;15.40;1.00
12959;DHT22;6544;51.666;6.634;2023-04-29T13:40:42;15.40;1.00
12959;DHT22;6544;51.666;6.634;2023-04-29T13:43:09;15.40;1.00
12959;DHT22;6544;51.666;6.634;2023-04-29T13:45:37;15.60;1.00
12959;DHT22;6544;51.666;6.634;2023-04-29T13:48:04;15.30;1.00
12959;DHT22;6544;51.666;6.634;2023-04-29T13:50:31;15.10;1.00
12959;DHT22;6544;51.666;6.634;2023-04-29T13:52:58;14.80;1.00
12959;DHT22;6544;51.666;6.634;2023-04-29T13:55:26;14.80;1.00
12959;DHT22;6544;51.666;6.634;2023-04-29T13:57:53;14.90;1.00
12959;DHT22;6544;51.666;6.634;2023-04-29T14:00:19;15.00;1.00
12959;DHT22;6544;51.666;6.634;2023-04-29T14:02:48;14.90;1.00
12959;DHT22;6544;51.666;6.634;2023-04-29T14:05:15;14.90;1.00
12959;DHT22;6544;51.666;6.634;2023-04-29T14:07:42;14.80;1.00
12959;DHT22;6544;51.666;6.634;2023-04-29T14:10:09;14.80;1.00
12959;DHT22;6544;51.666;6.634;2023-04-29T14:12:35;14.80;1.00
12959;DHT22;6544;51.666;6.634;2023-04-29T14:15:03;14.80;1.00
12959;DHT22;6544;51.666;6.634;2023-04-29T14:17:30;14.80;1.00
12959;DHT22;6544;51.666;6.634;2023-04-29T14:19:59;14.90;1.00
12959;DHT22;6544;51.666;6.634;2023-04-29T14:22:25;14.90;1.00
12959;DHT22;6544;51.666;6.634;2023-04-29T14:24:52;15.00;1.00
12959;DHT22;6544;51.666;6.634;2023-04-29T14:27:19;14.90;1.00
12959;DHT22;6544;51.666;6.634;2023-04-29T14:29:47;15.00;1.00
12959;DHT22;6544;51.666;6.634;2023-04-29T14:32:13;15.10;1.00
12959;DHT22;6544;51.666;6.634;2023-04-29T14:34:40;15.20;1.00
12959;DHT22;6544;51.666;6.634;2023-04-29T14:37:09;15.40;1.00
12959;DHT22;6544;51.666;6.634;2023-04-29T14:39:36;15.40;1.00
12959;DHT22;6544;51.666;6.634;2023-04-29T14:42:03;15.50;1.00
12959;DHT22;6544;51.666;6.634;2023-04-29T14:44:30;15.60;1.00
12959;DHT22;6544;51.666;6.634;2023-04-29T14:46:57;15.80;1.00
12959;DHT22;6544;51.666;6.634;2023-04-29T14:49:25;15.90;1.00
12959;DHT22;6544;51.666;6.634;2023-04-29T14:51:52;15.50;1.00
12959;DHT22;6544;51.666;6.634;2023-04-29T14:54:20;15.40;1.00
12959;DHT22;6544;51.666;6.634;2023-04-29T14:56:47;15.40;1.00
12959;DHT22;6544;51.666;6.634;2023-04-29T14:59:14;15.30;1.00
12959;DHT22;6544;51.666;6.634;2023-04-29T15:01:41;15.30;1.00
12959;DHT22;6544;51.666;6.634;2023-04-29T15:04:08;15.40;1.00
12959;DHT22;6544;51.666;6.634;2023-04-29T15:06:37;15.20;1.00
12959;DHT22;6544;51.666;6.634;2023-04-29T15:09:05;15.20;1.00
12959;DHT22;6544;51.666;6.634;2023-04-29T15:11:33;15.30;1.00
12959;DHT22;6544;51.666;6.634;2023-04-29T15:14:00;15.30;1.00
12959;DHT22;6544;51.666;6.634;2023-04-29T15:16:28;15.20;1.00
12959;DHT22;6544;51.666;6.634;2023-04-29T15:18:56;15.30;1.00
12959;DHT22;6544;51.666;6.634;2023-04-29T15:21:23;15.30;1.00
12959;DHT22;6544;51.666;6.634;2023-04-29T15:23:49;15.30;1.00
12959;DHT22;6544;51.666;6.634;2023-04-29T15:26:16;15.30;1.00
12959;DHT22;6544;51.666;6.634;2023-04-29T15:28:45;15.20;1.00
12959;DHT22;6544;51.666;6.634;2023-04-29T15:31:12;15.30;1.00
12959;DHT22;6544;51.666;6.634;2023-04-29T15:33:39;15.20;1.00
12959;DHT22;6544;51.666;6.634;2023-04-29T15:36:06;15.10;1.00
12959;DHT22;6544;51.666;6.634;2023-04-29T15:38:33;15.20;1.00
12959;DHT22;6544;51.666;6.634;2023-04-29T15:41:00;15.20;1.00
12959;DHT22;6544;51.666;6.634;2023-04-29T15:43:29;15.20;1.00
12959;DHT22;6544;51.666;6.634;2023-04-29T15:45:59;15.20;1.00
12959;DHT22;6544;51.666;6.634;2023-04-29T15:48:26;15.40;1.00
12959;DHT22;6544;51.666;6.634;2023-04-29T15:50:53;15.40;1.00
12959;DHT22;6544;51.666;6.634;2023-04-29T15:53:20;15.20;1.00
12959;DHT22;6544;51.666;6.634;2023-04-29T15:55:47;15.20;1.00
12959;DHT22;6544;51.666;6.634;2023-04-29T15:58:14;15.30;1.00
12959;DHT22;6544;51.666;6.634;2023-04-29T16:00:41;15.20;1.00
12959;DHT22;6544;51.666;6.634;2023-04-29T16:03:10;15.30;1.00
12959;DHT22;6544;51.666;6.634;2023-04-29T16:05:36;15.30;1.00